Time;durP1;ratioP1;P1;durP2;ratioP2;P2;SDS_P1;SDS_P2;PMS_P1;PMS_P2;Temp;Humidity;BMP_temperature;BMP_pressure;BME280_temperature;BME280_humidity;BME280_pressure;Samples;Min_cycle;Max_cycle;Signal;HPM_P1;HPM_P2
2023/12/08 00:00:20;;;;;;;;;;;1.40;99.90;;;;;;5020158;28;20503;-75
2023/12/08 00:03:06;;;;;;;;;;;1.40;99.90;;;;;;5004693;28;19917;-75
2023/12/08 00:05:52;;;;;;;;;;;1.40;99.90;;;;;;5019639;28;19924;-74
2023/12/08 00:08:38;;;;;;;;;;;1.40;99.90;;;;;;5032968;28;19927;-75
2023/12/08 00:11:24;;;;;;;;;;;1.40;99.90;;;;;;5014649;28;19971;-74
2023/12/08 00:14:10;;;;;;;;;;;1.40;99.90;;;;;;4999832;28;19909;-74
2023/12/08 00:16:56;;;;;;;;;;;1.40;99.90;;;;;;5015863;28;19909;-74
2023/12/08 00:19:42;;;;;;;;;;;1.40;99.90;;;;;;5010780;28;20348;-74
2023/12/08 00:22:28;;;;;;;;;;;1.40;99.90;;;;;;5024378;28;19941;-74
2023/12/08 00:25:14;;;;;;;;;;;1.50;99.90;;;;;;5000179;28;19909;-74
2023/12/08 00:27:59;;;;;;;;;;;1.50;99.90;;;;;;5025573;28;19923;-74
2023/12/08 00:30:45;;;;;;;;;;;1.50;99.90;;;;;;5019142;28;19917;-74
2023/12/08 00:33:31;;;;;;;;;;;1.50;99.90;;;;;;5018728;28;19919;-74
2023/12/08 00:36:17;;;;;;;;;;;1.50;99.90;;;;;;5028378;28;19944;-74
2023/12/08 00:39:03;;;;;;;;;;;1.50;99.90;;;;;;5018232;28;19920;-75
2023/12/08 00:41:49;;;;;;;;;;;1.50;99.90;;;;;;5019432;28;19909;-74
2023/12/08 00:44:36;;;;;;;;;;;1.50;99.90;;;;;;5025874;28;19920;-76
2023/12/08 00:47:22;;;;;;;;;;;1.50;99.90;;;;;;5018110;28;20325;-74
2023/12/08 00:50:08;;;;;;;;;;;1.60;99.90;;;;;;5005479;28;19908;-74
2023/12/08 00:52:54;;;;;;;;;;;1.60;99.90;;;;;;5026657;28;19913;-74
2023/12/08 00:55:40;;;;;;;;;;;1.50;99.90;;;;;;5033751;28;19913;-74
2023/12/08 00:58:26;;;;;;;;;;;1.50;99.90;;;;;;5018159;28;19928;-74
2023/12/08 01:01:12;;;;;;;;;;;1.50;99.90;;;;;;5032820;28;19917;-75
2023/12/08 01:03:58;;;;;;;;;;;1.40;99.90;;;;;;5031180;28;19967;-74
2023/12/08 01:06:45;;;;;;;;;;;1.40;99.90;;;;;;5009091;28;19940;-75
2023/12/08 01:09:31;;;;;;;;;;;1.40;99.90;;;;;;5020245;28;19908;-75
2023/12/08 01:12:17;;;;;;;;;;;1.40;99.90;;;;;;5006470;28;19944;-74
2023/12/08 01:15:04;;;;;;;;;;;1.40;99.90;;;;;;5020291;28;19909;-74
2023/12/08 01:17:50;;;;;;;;;;;1.40;99.90;;;;;;5032969;28;19916;-73
2023/12/08 01:20:36;;;;;;;;;;;1.40;99.90;;;;;;5019671;28;19920;-73
2023/12/08 01:23:22;;;;;;;;;;;1.50;99.90;;;;;;4998919;28;20257;-74
2023/12/08 01:26:08;;;;;;;;;;;1.50;99.90;;;;;;5023016;28;19909;-73
2023/12/08 01:28:55;;;;;;;;;;;1.50;99.90;;;;;;5017330;28;19971;-74
2023/12/08 01:31:41;;;;;;;;;;;1.60;99.90;;;;;;5017817;28;20337;-75
2023/12/08 01:34:27;;;;;;;;;;;1.60;99.90;;;;;;5018098;28;19920;-74
2023/12/08 01:37:13;;;;;;;;;;;1.60;99.90;;;;;;5027145;28;20253;-74
2023/12/08 01:39:59;;;;;;;;;;;1.60;99.90;;;;;;5013662;28;19909;-74
2023/12/08 01:42:47;;;;;;;;;;;1.60;99.90;;;;;;5032182;28;19924;-74
2023/12/08 01:45:33;;;;;;;;;;;1.70;99.90;;;;;;5032084;28;19916;-74
2023/12/08 01:48:19;;;;;;;;;;;1.60;99.90;;;;;;5032562;28;19913;-74
2023/12/08 01:51:05;;;;;;;;;;;1.70;99.90;;;;;;4992482;28;19909;-74
2023/12/08 01:53:51;;;;;;;;;;;1.60;99.90;;;;;;5015816;28;20247;-74
2023/12/08 01:56:38;;;;;;;;;;;1.60;99.90;;;;;;5023414;28;19948;-74
2023/12/08 01:59:24;;;;;;;;;;;1.70;99.90;;;;;;5033565;28;19921;-74
2023/12/08 02:02:10;;;;;;;;;;;1.70;99.90;;;;;;5008473;28;20319;-74
2023/12/08 02:04:56;;;;;;;;;;;1.70;99.90;;;;;;5016287;28;19909;-74
2023/12/08 02:07:42;;;;;;;;;;;1.70;99.90;;;;;;5028488;28;19972;-74
2023/12/08 02:10:28;;;;;;;;;;;1.70;99.90;;;;;;5021758;28;19909;-74
2023/12/08 02:13:16;;;;;;;;;;;1.60;99.90;;;;;;5015170;28;19909;-74
2023/12/08 02:16:04;;;;;;;;;;;1.60;99.90;;;;;;4992191;28;20356;-74
2023/12/08 02:18:50;;;;;;;;;;;1.60;99.90;;;;;;5020154;28;19913;-74
2023/12/08 02:21:36;;;;;;;;;;;1.60;99.90;;;;;;5021930;28;19909;-74
2023/12/08 02:24:21;;;;;;;;;;;1.60;99.90;;;;;;5005597;28;19913;-74
2023/12/08 02:27:07;;;;;;;;;;;1.60;99.90;;;;;;5035702;28;20491;-74
2023/12/08 02:29:53;;;;;;;;;;;1.60;99.90;;;;;;5023459;28;19920;-74
2023/12/08 02:32:42;;;;;;;;;;;1.60;99.90;;;;;;5020523;28;19920;-74
2023/12/08 02:35:28;;;;;;;;;;;1.60;99.90;;;;;;5035959;28;19912;-74
2023/12/08 02:38:17;;;;;;;;;;;1.60;99.90;;;;;;5025678;28;19913;-75
2023/12/08 02:41:03;;;;;;;;;;;1.50;99.90;;;;;;5034466;28;19981;-74
2023/12/08 02:43:49;;;;;;;;;;;1.50;99.90;;;;;;5027017;28;19921;-74
2023/12/08 02:46:34;;;;;;;;;;;1.50;99.90;;;;;;5008865;28;19939;-74
2023/12/08 02:49:20;;;;;;;;;;;1.60;99.90;;;;;;5011637;28;20004;-74
2023/12/08 02:52:06;;;;;;;;;;;1.60;99.90;;;;;;5033868;28;19917;-74
2023/12/08 02:54:53;;;;;;;;;;;1.60;99.90;;;;;;5036482;28;20328;-74
2023/12/08 02:57:39;;;;;;;;;;;1.70;99.90;;;;;;5021380;28;20294;-74
2023/12/08 03:00:26;;;;;;;;;;;1.70;99.90;;;;;;5021555;28;20012;-74
2023/12/08 03:03:12;;;;;;;;;;;1.60;99.90;;;;;;5019262;28;19916;-75
2023/12/08 03:05:58;;;;;;;;;;;1.60;99.90;;;;;;5033403;28;19919;-74
2023/12/08 03:08:43;;;;;;;;;;;1.60;99.90;;;;;;5028214;28;19924;-74
2023/12/08 03:11:29;;;;;;;;;;;1.50;99.90;;;;;;5017055;28;19983;-73
2023/12/08 03:14:15;;;;;;;;;;;1.60;99.90;;;;;;5020701;28;19909;-73
2023/12/08 03:17:01;;;;;;;;;;;1.60;99.90;;;;;;5023120;28;19909;-73
2023/12/08 03:19:47;;;;;;;;;;;1.60;99.90;;;;;;5042850;28;20055;-73
2023/12/08 03:22:33;;;;;;;;;;;1.60;99.90;;;;;;5007285;28;19909;-73
2023/12/08 03:25:19;;;;;;;;;;;1.70;99.90;;;;;;5019628;28;19920;-73
2023/12/08 03:28:05;;;;;;;;;;;1.70;99.90;;;;;;5021573;28;19913;-73
2023/12/08 03:30:51;;;;;;;;;;;1.60;99.90;;;;;;5031520;28;19917;-73
2023/12/08 03:33:37;;;;;;;;;;;1.60;99.90;;;;;;5019799;28;20681;-72
2023/12/08 03:36:23;;;;;;;;;;;1.60;99.90;;;;;;5025748;28;19940;-73
2023/12/08 03:39:09;;;;;;;;;;;1.60;99.90;;;;;;5029375;28;19920;-74
2023/12/08 03:41:55;;;;;;;;;;;1.60;99.90;;;;;;4996506;28;19936;-74
2023/12/08 03:44:42;;;;;;;;;;;1.60;99.90;;;;;;5013653;28;19909;-74
2023/12/08 03:47:28;;;;;;;;;;;1.60;99.90;;;;;;5013613;28;19923;-74
2023/12/08 03:50:14;;;;;;;;;;;1.60;99.90;;;;;;5014054;28;19924;-74
2023/12/08 03:53:00;;;;;;;;;;;1.60;99.90;;;;;;5035051;28;19913;-74
2023/12/08 03:55:46;;;;;;;;;;;1.60;99.90;;;;;;5017574;28;19952;-73
2023/12/08 03:58:32;;;;;;;;;;;1.60;99.90;;;;;;5022371;28;19936;-74
2023/12/08 04:01:18;;;;;;;;;;;1.60;99.90;;;;;;5019292;28;20306;-73
2023/12/08 04:04:05;;;;;;;;;;;1.60;99.90;;;;;;5033425;28;19919;-73
2023/12/08 04:06:52;;;;;;;;;;;1.60;99.90;;;;;;5026353;28;19945;-73
2023/12/08 04:09:41;;;;;;;;;;;1.60;99.90;;;;;;5032014;28;19909;-73
2023/12/08 04:12:27;;;;;;;;;;;1.60;99.90;;;;;;5026036;28;19970;-74
2023/12/08 04:15:14;;;;;;;;;;;1.60;99.90;;;;;;5032647;28;19920;-73
2023/12/08 04:18:01;;;;;;;;;;;1.60;99.90;;;;;;5034888;28;20276;-73
2023/12/08 04:20:47;;;;;;;;;;;1.70;99.90;;;;;;5046634;28;19913;-74
2023/12/08 04:23:33;;;;;;;;;;;1.70;99.90;;;;;;5007607;28;19952;-73
2023/12/08 04:26:24;;;;;;;;;;;1.70;99.90;;;;;;5022986;28;19909;-73
2023/12/08 04:29:10;;;;;;;;;;;1.70;99.90;;;;;;5009724;28;19921;-73
2023/12/08 04:31:56;;;;;;;;;;;1.70;99.90;;;;;;5027459;28;19909;-73
2023/12/08 04:34:42;;;;;;;;;;;1.80;99.90;;;;;;5020809;28;19917;-73
2023/12/08 04:37:28;;;;;;;;;;;1.70;99.90;;;;;;5035220;28;19908;-73
2023/12/08 04:40:14;;;;;;;;;;;1.80;99.90;;;;;;5020190;28;20233;-73
2023/12/08 04:43:00;;;;;;;;;;;1.80;99.90;;;;;;5020758;28;19908;-74
2023/12/08 04:45:46;;;;;;;;;;;1.80;99.90;;;;;;5021830;28;19940;-74
2023/12/08 04:48:33;;;;;;;;;;;1.80;99.90;;;;;;5018806;28;20043;-74
2023/12/08 04:51:20;;;;;;;;;;;1.80;99.90;;;;;;5035710;28;19909;-74
2023/12/08 04:54:06;;;;;;;;;;;1.80;99.90;;;;;;5019827;28;19909;-74
2023/12/08 04:56:52;;;;;;;;;;;1.80;99.90;;;;;;5017867;28;20361;-74
2023/12/08 04:59:38;;;;;;;;;;;1.80;99.90;;;;;;5032436;28;20470;-74
2023/12/08 05:02:24;;;;;;;;;;;1.80;99.90;;;;;;5028741;28;19913;-74
2023/12/08 05:05:10;;;;;;;;;;;1.80;99.90;;;;;;5035220;28;20571;-74
2023/12/08 05:07:56;;;;;;;;;;;1.80;99.90;;;;;;5002140;28;19913;-74
2023/12/08 05:10:43;;;;;;;;;;;1.80;99.90;;;;;;5021150;28;19963;-74
2023/12/08 05:13:29;;;;;;;;;;;1.80;99.90;;;;;;5023497;28;19909;-74
2023/12/08 05:16:15;;;;;;;;;;;1.90;99.90;;;;;;4987199;28;20245;-74
2023/12/08 05:19:01;;;;;;;;;;;1.90;99.90;;;;;;5037030;28;19991;-74
2023/12/08 05:21:47;;;;;;;;;;;1.80;99.90;;;;;;5009955;28;20289;-74
2023/12/08 05:24:33;;;;;;;;;;;1.80;99.90;;;;;;5022342;28;19913;-74
2023/12/08 05:27:19;;;;;;;;;;;1.90;99.90;;;;;;4987354;28;19913;-74
2023/12/08 05:30:05;;;;;;;;;;;1.90;99.90;;;;;;5014380;28;20261;-74
2023/12/08 05:32:51;;;;;;;;;;;1.80;99.90;;;;;;5026258;28;19909;-74
2023/12/08 05:35:37;;;;;;;;;;;1.90;99.90;;;;;;5006758;28;19963;-74
2023/12/08 05:38:23;;;;;;;;;;;1.80;99.90;;;;;;5033506;28;19909;-74
2023/12/08 05:41:09;;;;;;;;;;;1.90;99.90;;;;;;5033876;28;20318;-74
2023/12/08 05:43:55;;;;;;;;;;;1.80;99.90;;;;;;5020570;28;20321;-74
2023/12/08 05:46:41;;;;;;;;;;;1.80;99.90;;;;;;5006690;28;19913;-74
2023/12/08 05:49:27;;;;;;;;;;;1.80;99.90;;;;;;5014019;28;19919;-74
2023/12/08 05:52:13;;;;;;;;;;;1.80;99.90;;;;;;5023275;28;19924;-74
2023/12/08 05:54:59;;;;;;;;;;;1.80;99.90;;;;;;5007985;28;19913;-74
2023/12/08 05:57:45;;;;;;;;;;;1.80;99.90;;;;;;5019560;28;19955;-74
2023/12/08 06:00:33;;;;;;;;;;;1.70;99.90;;;;;;5003793;28;20004;-74
2023/12/08 06:03:20;;;;;;;;;;;1.70;99.90;;;;;;5012261;28;19932;-74
2023/12/08 06:06:06;;;;;;;;;;;1.70;99.90;;;;;;5027363;28;19944;-74
2023/12/08 06:08:52;;;;;;;;;;;1.70;99.90;;;;;;5006980;28;19917;-74
2023/12/08 06:11:38;;;;;;;;;;;1.60;99.90;;;;;;5012699;28;19920;-74
2023/12/08 06:14:24;;;;;;;;;;;1.60;99.90;;;;;;5015830;28;19909;-74
2023/12/08 06:17:10;;;;;;;;;;;1.70;99.90;;;;;;5020951;28;19963;-74
2023/12/08 06:19:56;;;;;;;;;;;1.60;99.90;;;;;;5026008;28;19920;-74
2023/12/08 06:22:43;;;;;;;;;;;1.70;99.90;;;;;;5021751;28;19909;-73
2023/12/08 06:25:30;;;;;;;;;;;1.70;99.90;;;;;;5020569;28;19948;-74
2023/12/08 06:28:19;;;;;;;;;;;1.70;99.90;;;;;;4992487;28;20310;-74
2023/12/08 06:31:05;;;;;;;;;;;1.70;99.90;;;;;;5019181;28;19970;-74
2023/12/08 06:33:51;;;;;;;;;;;1.80;99.90;;;;;;5033308;28;19916;-74
2023/12/08 06:36:43;;;;;;;;;;;1.80;99.90;;;;;;5007187;28;19916;-74
2023/12/08 06:39:28;;;;;;;;;;;1.80;99.90;;;;;;5022336;28;19916;-74
2023/12/08 06:42:14;;;;;;;;;;;1.90;99.90;;;;;;5022708;28;19909;-74
2023/12/08 06:45:02;;;;;;;;;;;1.80;99.90;;;;;;5022336;28;19913;-74
2023/12/08 06:47:47;;;;;;;;;;;1.90;99.90;;;;;;5022845;28;19920;-74
2023/12/08 06:50:33;;;;;;;;;;;1.90;99.90;;;;;;5022549;28;20242;-74
2023/12/08 06:53:19;;;;;;;;;;;2.00;99.90;;;;;;5022305;28;19909;-74
2023/12/08 06:56:07;;;;;;;;;;;2.00;99.90;;;;;;5041307;28;19913;-74
2023/12/08 06:58:53;;;;;;;;;;;2.00;99.90;;;;;;5017509;28;20330;-74
2023/12/08 07:01:39;;;;;;;;;;;2.00;99.90;;;;;;5018655;28;20059;-73
2023/12/08 07:04:25;;;;;;;;;;;2.00;99.90;;;;;;5030525;28;19945;-73
2023/12/08 07:07:11;;;;;;;;;;;2.10;99.90;;;;;;5033027;28;19927;-73
2023/12/08 07:09:57;;;;;;;;;;;2.10;99.90;;;;;;5036487;28;19909;-73
2023/12/08 07:12:43;;;;;;;;;;;2.10;99.90;;;;;;5030953;28;19924;-73
2023/12/08 07:15:29;;;;;;;;;;;2.10;99.90;;;;;;5026549;28;20192;-73
2023/12/08 07:18:17;;;;;;;;;;;2.10;99.90;;;;;;5013761;28;19909;-73
2023/12/08 07:21:03;;;;;;;;;;;2.10;99.90;;;;;;5033849;28;19979;-73
2023/12/08 07:23:49;;;;;;;;;;;2.10;99.90;;;;;;5023662;28;19913;-74
2023/12/08 07:26:35;;;;;;;;;;;2.10;99.90;;;;;;5026861;28;19909;-74
2023/12/08 07:29:23;;;;;;;;;;;2.20;99.90;;;;;;5040894;28;19916;-73
2023/12/08 07:32:09;;;;;;;;;;;2.10;99.90;;;;;;5037528;28;19923;-73
2023/12/08 07:34:56;;;;;;;;;;;2.10;99.90;;;;;;5018975;28;19971;-73
2023/12/08 07:37:44;;;;;;;;;;;2.10;99.90;;;;;;5003922;28;19928;-73
2023/12/08 07:40:30;;;;;;;;;;;2.10;99.90;;;;;;5022581;28;19912;-73
2023/12/08 07:43:16;;;;;;;;;;;2.10;99.90;;;;;;5036000;28;19920;-73
2023/12/08 07:46:02;;;;;;;;;;;2.10;99.90;;;;;;5022383;28;19909;-74
2023/12/08 07:48:48;;;;;;;;;;;2.10;99.90;;;;;;5021695;28;19960;-74
2023/12/08 07:51:34;;;;;;;;;;;2.10;99.90;;;;;;5023499;28;19914;-74
2023/12/08 07:54:20;;;;;;;;;;;2.20;99.90;;;;;;5018322;28;19917;-74
2023/12/08 07:57:07;;;;;;;;;;;2.20;99.90;;;;;;5016453;28;19944;-73
2023/12/08 07:59:53;;;;;;;;;;;2.20;99.90;;;;;;5003515;28;19925;-73
2023/12/08 08:02:39;;;;;;;;;;;2.20;99.90;;;;;;5032376;28;20003;-73
2023/12/08 08:05:25;;;;;;;;;;;2.30;99.90;;;;;;5003508;28;19919;-74
2023/12/08 08:08:11;;;;;;;;;;;2.20;99.90;;;;;;5019891;28;19976;-73
2023/12/08 08:10:57;;;;;;;;;;;2.20;99.90;;;;;;5037755;28;19913;-74
2023/12/08 08:13:43;;;;;;;;;;;2.10;99.90;;;;;;5010966;28;19913;-73
2023/12/08 08:16:29;;;;;;;;;;;2.20;99.90;;;;;;5020992;28;19909;-73
2023/12/08 08:19:15;;;;;;;;;;;2.20;99.90;;;;;;5016175;28;19967;-73
2023/12/08 08:22:01;;;;;;;;;;;2.20;99.90;;;;;;5025791;28;19913;-73
2023/12/08 08:24:47;;;;;;;;;;;2.20;99.90;;;;;;5031210;28;19943;-74
2023/12/08 08:27:33;;;;;;;;;;;2.20;99.90;;;;;;5026819;28;19972;-74
2023/12/08 08:30:20;;;;;;;;;;;2.20;99.90;;;;;;5017917;28;19944;-74
2023/12/08 08:33:06;;;;;;;;;;;2.30;99.90;;;;;;5035655;28;20063;-74
2023/12/08 08:35:52;;;;;;;;;;;2.30;99.90;;;;;;5021578;28;19909;-74
2023/12/08 08:38:38;;;;;;;;;;;2.30;99.90;;;;;;5034454;28;19936;-74
2023/12/08 08:41:24;;;;;;;;;;;2.40;99.90;;;;;;5019875;28;19924;-73
2023/12/08 08:44:10;;;;;;;;;;;2.30;99.90;;;;;;5020184;28;19991;-73
2023/12/08 08:46:56;;;;;;;;;;;2.30;99.90;;;;;;5013526;28;19913;-73
2023/12/08 08:49:42;;;;;;;;;;;2.40;99.90;;;;;;5025069;28;19909;-73
2023/12/08 08:52:28;;;;;;;;;;;2.50;99.90;;;;;;5033181;28;19982;-74
2023/12/08 08:55:14;;;;;;;;;;;2.40;99.90;;;;;;5010696;28;19913;-74
2023/12/08 08:58:00;;;;;;;;;;;2.40;99.90;;;;;;5017454;28;19928;-74
2023/12/08 09:00:46;;;;;;;;;;;2.40;99.90;;;;;;5036074;28;19924;-73
2023/12/08 09:03:33;;;;;;;;;;;2.40;99.90;;;;;;5033957;28;19923;-74
2023/12/08 09:06:20;;;;;;;;;;;2.40;99.90;;;;;;5019674;28;19971;-73
2023/12/08 09:09:07;;;;;;;;;;;2.40;99.90;;;;;;5031234;28;19917;-73
2023/12/08 09:11:53;;;;;;;;;;;2.40;99.90;;;;;;5023512;28;19975;-73
2023/12/08 09:14:39;;;;;;;;;;;2.40;99.90;;;;;;5023274;28;19913;-74
2023/12/08 09:17:25;;;;;;;;;;;2.40;99.90;;;;;;5013154;28;19920;-74
2023/12/08 09:20:14;;;;;;;;;;;2.40;99.90;;;;;;5022956;28;19949;-74
2023/12/08 09:23:00;;;;;;;;;;;2.40;99.90;;;;;;5009390;28;19948;-74
2023/12/08 09:25:47;;;;;;;;;;;2.40;99.90;;;;;;5027239;28;19913;-74
2023/12/08 09:28:34;;;;;;;;;;;2.30;99.90;;;;;;5022060;28;19913;-75
2023/12/08 09:31:21;;;;;;;;;;;2.20;99.90;;;;;;5021320;28;19940;-75
2023/12/08 09:34:08;;;;;;;;;;;2.10;99.90;;;;;;5028614;28;19959;-75
2023/12/08 09:36:55;;;;;;;;;;;2.00;99.90;;;;;;5012574;28;19920;-75
2023/12/08 09:39:44;;;;;;;;;;;2.00;99.90;;;;;;5018036;28;20261;-75
2023/12/08 09:42:32;;;;;;;;;;;2.00;99.90;;;;;;4997181;28;19910;-75
2023/12/08 09:45:19;;;;;;;;;;;2.00;99.90;;;;;;5028673;28;19909;-75
2023/12/08 09:48:06;;;;;;;;;;;2.00;99.90;;;;;;5024293;28;19924;-76
2023/12/08 09:50:52;;;;;;;;;;;2.00;99.90;;;;;;5020468;28;19936;-75
2023/12/08 09:53:39;;;;;;;;;;;2.10;99.90;;;;;;5004001;28;19913;-75
2023/12/08 09:56:26;;;;;;;;;;;2.10;99.90;;;;;;5021237;28;19920;-75
2023/12/08 09:59:12;;;;;;;;;;;2.10;99.90;;;;;;5021845;28;19925;-75
2023/12/08 10:01:57;;;;;;;;;;;2.10;99.90;;;;;;5024617;28;20242;-75
2023/12/08 10:04:46;;;;;;;;;;;2.10;99.90;;;;;;4992247;28;19921;-75
2023/12/08 10:07:32;;;;;;;;;;;2.10;99.90;;;;;;5007502;28;19916;-76
2023/12/08 10:10:19;;;;;;;;;;;2.10;99.90;;;;;;5020776;28;19913;-75
2023/12/08 10:13:05;;;;;;;;;;;2.20;99.90;;;;;;5024415;28;19909;-75
2023/12/08 10:15:51;;;;;;;;;;;2.10;99.90;;;;;;5024098;28;19909;-75
2023/12/08 10:18:38;;;;;;;;;;;2.20;99.90;;;;;;5020834;28;19968;-75
2023/12/08 10:21:24;;;;;;;;;;;2.20;99.90;;;;;;5038949;28;19909;-75
2023/12/08 10:24:11;;;;;;;;;;;2.20;99.90;;;;;;5032328;28;20059;-75
2023/12/08 10:26:57;;;;;;;;;;;2.20;99.90;;;;;;5019939;28;20255;-75
2023/12/08 10:29:43;;;;;;;;;;;2.20;99.90;;;;;;5019196;28;20301;-75
2023/12/08 10:32:30;;;;;;;;;;;2.20;99.90;;;;;;5021304;28;20334;-75
2023/12/08 10:35:16;;;;;;;;;;;2.30;99.90;;;;;;5023565;28;20234;-76
2023/12/08 10:38:02;;;;;;;;;;;2.30;99.90;;;;;;5017418;28;19910;-75
2023/12/08 10:40:48;;;;;;;;;;;2.30;99.90;;;;;;5037688;28;19916;-76
2023/12/08 10:43:36;;;;;;;;;;;2.30;99.90;;;;;;5029482;28;20309;-75
2023/12/08 10:46:22;;;;;;;;;;;2.30;99.90;;;;;;5025120;28;19913;-75
2023/12/08 10:49:08;;;;;;;;;;;2.30;99.90;;;;;;5027966;28;19982;-75
2023/12/08 10:51:54;;;;;;;;;;;2.30;99.90;;;;;;4989894;28;19909;-75
2023/12/08 10:54:40;;;;;;;;;;;2.40;99.90;;;;;;5007189;28;19916;-75
2023/12/08 10:57:26;;;;;;;;;;;2.40;99.90;;;;;;5036011;28;19992;-75
2023/12/08 11:00:17;;;;;;;;;;;2.40;99.90;;;;;;5008154;28;19917;-75
2023/12/08 11:03:03;;;;;;;;;;;2.40;99.90;;;;;;5031325;28;20011;-75
2023/12/08 11:05:53;;;;;;;;;;;2.40;99.90;;;;;;5021456;28;19909;-74
2023/12/08 11:08:40;;;;;;;;;;;2.40;99.90;;;;;;5017955;28;19971;-75
2023/12/08 11:11:31;;;;;;;;;;;2.50;99.90;;;;;;5015935;28;19920;-75
2023/12/08 11:14:40;;;;;;;;;;;2.50;99.90;;;;;;5035435;28;19916;-75
2023/12/08 11:17:30;;;;;;;;;;;2.40;99.90;;;;;;5033070;28;19944;-75
2023/12/08 11:20:17;;;;;;;;;;;2.50;99.90;;;;;;5023154;28;19909;-75
2023/12/08 11:23:03;;;;;;;;;;;2.40;99.90;;;;;;5021905;28;19958;-75
2023/12/08 11:25:57;;;;;;;;;;;2.50;99.90;;;;;;5012116;28;20465;-75
2023/12/08 11:29:02;;;;;;;;;;;2.40;99.90;;;;;;5020915;28;20472;-75
2023/12/08 11:31:52;;;;;;;;;;;2.40;99.90;;;;;;5036200;28;19908;-75
2023/12/08 11:34:42;;;;;;;;;;;2.40;99.90;;;;;;5036999;28;19909;-75
2023/12/08 11:37:29;;;;;;;;;;;2.40;99.90;;;;;;5035439;28;19908;-75
2023/12/08 11:40:15;;;;;;;;;;;2.40;99.90;;;;;;5036720;28;19924;-75
2023/12/08 11:43:01;;;;;;;;;;;2.40;99.90;;;;;;5018705;28;19913;-75
2023/12/08 11:45:48;;;;;;;;;;;2.40;99.90;;;;;;5033402;28;19913;-75
2023/12/08 11:48:35;;;;;;;;;;;2.40;99.90;;;;;;5003950;28;20403;-75
2023/12/08 11:51:23;;;;;;;;;;;2.40;99.90;;;;;;5015946;28;19972;-75
2023/12/08 11:54:09;;;;;;;;;;;2.40;99.90;;;;;;5015650;28;19983;-75
2023/12/08 11:56:55;;;;;;;;;;;2.40;99.90;;;;;;5044302;28;19928;-75
2023/12/08 11:59:41;;;;;;;;;;;2.40;99.90;;;;;;5004975;28;20000;-75
2023/12/08 12:02:30;;;;;;;;;;;2.40;99.90;;;;;;5022083;28;19916;-75
2023/12/08 12:05:16;;;;;;;;;;;2.40;99.90;;;;;;5017669;28;19967;-75
2023/12/08 12:08:02;;;;;;;;;;;2.40;99.90;;;;;;5021278;28;20288;-75
2023/12/08 12:10:48;;;;;;;;;;;2.40;99.90;;;;;;5008416;28;19912;-75
2023/12/08 12:13:35;;;;;;;;;;;2.40;99.90;;;;;;5036079;28;20032;-75
2023/12/08 12:16:21;;;;;;;;;;;2.40;99.90;;;;;;5026779;28;19923;-75
2023/12/08 12:19:07;;;;;;;;;;;2.40;99.90;;;;;;5036060;28;19908;-75
2023/12/08 12:21:53;;;;;;;;;;;2.40;99.90;;;;;;5022049;28;20314;-75
2023/12/08 12:24:40;;;;;;;;;;;2.40;99.90;;;;;;5015806;28;20215;-76
2023/12/08 12:27:26;;;;;;;;;;;2.40;99.90;;;;;;5021229;28;19921;-75
2023/12/08 12:30:12;;;;;;;;;;;2.40;99.90;;;;;;5021960;28;19921;-76
2023/12/08 12:32:59;;;;;;;;;;;2.40;99.90;;;;;;5002274;28;19916;-76
2023/12/08 12:35:44;;;;;;;;;;;2.40;99.90;;;;;;5018043;28;19909;-76
2023/12/08 12:38:33;;;;;;;;;;;2.30;99.90;;;;;;5028065;28;19951;-76
2023/12/08 12:41:23;;;;;;;;;;;2.20;99.90;;;;;;5018595;28;19916;-74
2023/12/08 12:44:09;;;;;;;;;;;2.30;99.90;;;;;;5034504;28;20003;-74
2023/12/08 12:46:55;;;;;;;;;;;2.40;99.90;;;;;;5020662;28;19913;-74
2023/12/08 12:49:42;;;;;;;;;;;2.40;99.90;;;;;;5019357;28;19924;-75
2023/12/08 12:52:30;;;;;;;;;;;2.50;99.90;;;;;;5025113;28;19920;-75
2023/12/08 12:55:26;;;;;;;;;;;2.50;99.90;;;;;;5033695;28;20242;-75
2023/12/08 12:58:19;;;;;;;;;;;2.50;99.90;;;;;;5020425;28;20338;-75
2023/12/08 13:01:12;;;;;;;;;;;2.50;99.90;;;;;;5002734;28;19909;-75
2023/12/08 13:03:58;;;;;;;;;;;2.50;99.90;;;;;;5013251;28;19909;-75
2023/12/08 13:06:44;;;;;;;;;;;2.50;99.90;;;;;;5010069;28;19917;-75
2023/12/08 13:09:30;;;;;;;;;;;2.50;99.90;;;;;;5026664;28;19913;-75
2023/12/08 13:12:16;;;;;;;;;;;2.50;99.90;;;;;;5020952;28;20245;-75
2023/12/08 13:15:02;;;;;;;;;;;2.40;99.90;;;;;;5004678;28;19909;-75
2023/12/08 13:17:48;;;;;;;;;;;2.30;99.90;;;;;;5023638;28;19909;-75
2023/12/08 13:20:40;;;;;;;;;;;2.20;99.90;;;;;;5029512;28;19912;-75
2023/12/08 13:23:26;;;;;;;;;;;2.30;99.90;;;;;;5023059;28;19991;-75
2023/12/08 13:26:12;;;;;;;;;;;2.20;99.90;;;;;;5022570;28;20253;-75
2023/12/08 13:28:59;;;;;;;;;;;2.20;99.90;;;;;;5019591;28;19956;-75
2023/12/08 13:31:45;;;;;;;;;;;2.20;99.90;;;;;;5003741;28;20009;-75
2023/12/08 13:34:31;;;;;;;;;;;2.20;99.90;;;;;;5002040;28;19916;-75
2023/12/08 13:37:18;;;;;;;;;;;2.20;99.90;;;;;;5014957;28;19920;-75
2023/12/08 13:40:04;;;;;;;;;;;2.20;99.90;;;;;;5028558;28;19965;-75
2023/12/08 13:42:52;;;;;;;;;;;2.20;99.90;;;;;;5047071;28;19909;-75
2023/12/08 13:45:39;;;;;;;;;;;2.20;99.90;;;;;;5027576;28;20284;-75
2023/12/08 13:48:29;;;;;;;;;;;2.20;99.90;;;;;;5030475;28;19913;-76
2023/12/08 13:51:17;;;;;;;;;;;2.10;99.90;;;;;;5019521;28;20364;-75
2023/12/08 13:54:03;;;;;;;;;;;2.10;99.90;;;;;;5035706;28;19913;-75
2023/12/08 13:56:49;;;;;;;;;;;2.20;99.90;;;;;;5038273;28;19913;-75
2023/12/08 13:59:35;;;;;;;;;;;2.10;99.90;;;;;;5024729;28;20240;-75
2023/12/08 14:02:22;;;;;;;;;;;2.20;99.90;;;;;;5034031;28;19921;-75
2023/12/08 14:05:10;;;;;;;;;;;2.30;99.90;;;;;;5016200;28;19920;-75
2023/12/08 14:07:56;;;;;;;;;;;2.20;99.90;;;;;;5026216;28;19913;-75
2023/12/08 14:10:42;;;;;;;;;;;2.20;99.90;;;;;;5036702;28;19909;-75
2023/12/08 14:13:28;;;;;;;;;;;2.30;99.90;;;;;;5036552;28;19916;-75
2023/12/08 14:16:14;;;;;;;;;;;2.30;99.90;;;;;;5027356;28;19913;-76
2023/12/08 14:19:01;;;;;;;;;;;2.20;99.90;;;;;;5011721;28;19971;-76
2023/12/08 14:21:48;;;;;;;;;;;2.20;99.90;;;;;;5023527;28;20329;-76
2023/12/08 14:24:34;;;;;;;;;;;2.20;99.90;;;;;;5011099;28;19913;-75
2023/12/08 14:27:21;;;;;;;;;;;2.20;99.90;;;;;;5038126;28;19916;-75
2023/12/08 14:30:10;;;;;;;;;;;2.20;99.90;;;;;;5012127;28;19924;-75
2023/12/08 14:32:55;;;;;;;;;;;2.20;99.90;;;;;;5011267;28;19920;-76
2023/12/08 14:35:43;;;;;;;;;;;2.10;99.90;;;;;;5020817;28;19916;-75
2023/12/08 14:38:29;;;;;;;;;;;2.20;99.90;;;;;;5025373;28;19908;-75
2023/12/08 14:41:15;;;;;;;;;;;2.10;99.90;;;;;;5011767;28;19959;-74
2023/12/08 14:44:01;;;;;;;;;;;2.10;99.90;;;;;;5013527;28;19959;-74
2023/12/08 14:46:48;;;;;;;;;;;2.10;99.90;;;;;;5030059;28;19992;-74
2023/12/08 14:49:35;;;;;;;;;;;2.10;99.90;;;;;;5022453;28;19913;-74
2023/12/08 14:52:21;;;;;;;;;;;2.20;99.90;;;;;;5009438;28;19924;-74
2023/12/08 14:55:07;;;;;;;;;;;2.20;99.90;;;;;;5040086;28;20360;-74
2023/12/08 14:57:53;;;;;;;;;;;2.20;99.90;;;;;;5034534;28;19999;-74
2023/12/08 15:00:39;;;;;;;;;;;2.20;99.90;;;;;;5024607;28;19964;-74
2023/12/08 15:03:26;;;;;;;;;;;2.20;99.90;;;;;;5010731;28;20222;-74
2023/12/08 15:06:12;;;;;;;;;;;2.20;99.90;;;;;;5008692;28;19925;-74
2023/12/08 15:08:58;;;;;;;;;;;2.20;99.90;;;;;;5008940;28;19928;-74
2023/12/08 15:11:44;;;;;;;;;;;2.20;99.90;;;;;;5012914;28;19959;-74
2023/12/08 15:14:30;;;;;;;;;;;2.20;99.90;;;;;;5015603;28;20408;-74
2023/12/08 15:17:16;;;;;;;;;;;2.20;99.90;;;;;;5032169;28;20596;-76
2023/12/08 15:20:04;;;;;;;;;;;2.20;99.90;;;;;;5018464;28;19991;-76
2023/12/08 15:22:58;;;;;;;;;;;2.20;99.90;;;;;;5010212;28;19913;-76
2023/12/08 15:25:44;;;;;;;;;;;2.20;99.90;;;;;;5031988;28;19943;-75
2023/12/08 15:28:31;;;;;;;;;;;2.10;99.90;;;;;;5035269;28;19924;-75
2023/12/08 15:31:19;;;;;;;;;;;2.10;99.90;;;;;;5022931;28;19935;-75
2023/12/08 15:34:05;;;;;;;;;;;2.10;99.90;;;;;;5023567;28;19909;-75
2023/12/08 15:36:51;;;;;;;;;;;2.10;99.90;;;;;;5034039;28;19967;-75
2023/12/08 15:39:40;;;;;;;;;;;2.00;99.90;;;;;;5023369;28;19920;-75
2023/12/08 15:42:26;;;;;;;;;;;2.00;99.90;;;;;;5024334;28;19909;-75
2023/12/08 15:45:11;;;;;;;;;;;2.00;99.90;;;;;;5022115;28;19913;-75
2023/12/08 15:47:58;;;;;;;;;;;2.00;99.90;;;;;;5016983;28;19917;-75
2023/12/08 15:50:44;;;;;;;;;;;2.00;99.90;;;;;;5035978;28;19963;-75
2023/12/08 15:53:29;;;;;;;;;;;2.00;99.90;;;;;;5009962;28;20306;-75
2023/12/08 15:56:15;;;;;;;;;;;2.00;99.90;;;;;;5021262;28;19968;-77
2023/12/08 15:59:01;;;;;;;;;;;2.00;99.90;;;;;;5010492;28;19926;-77
2023/12/08 16:01:55;;;;;;;;;;;2.00;99.90;;;;;;5022626;28;19971;-77
2023/12/08 16:04:41;;;;;;;;;;;2.10;99.90;;;;;;5022035;28;19908;-77
2023/12/08 16:07:28;;;;;;;;;;;2.10;99.90;;;;;;5021494;28;20318;-74
2023/12/08 16:10:14;;;;;;;;;;;2.10;99.90;;;;;;5019062;28;19940;-74
2023/12/08 16:13:00;;;;;;;;;;;2.10;99.90;;;;;;5015525;28;19987;-74
2023/12/08 16:15:46;;;;;;;;;;;2.10;99.90;;;;;;5025028;28;19956;-75
2023/12/08 16:18:32;;;;;;;;;;;2.10;99.90;;;;;;5035850;28;19913;-75
2023/12/08 16:21:21;;;;;;;;;;;2.10;99.90;;;;;;5031206;28;19916;-75
2023/12/08 16:24:07;;;;;;;;;;;2.00;99.90;;;;;;5030593;28;20003;-75